sensor_id;sensor_type;location;lat;lon;timestamp;pressure;altitude;pressure_sealevel;temperature;humidity
72444;BME280;60449;52.016;5.414;2023-10-13T00:00:22;101076.88;;;16.87;100.00
72444;BME280;60449;52.016;5.414;2023-10-13T00:01:31;101071.53;;;16.87;100.00
72444;BME280;60449;52.016;5.414;2023-10-13T00:02:22;101067.25;;;16.78;100.00
72444;BME280;60449;52.016;5.414;2023-10-13T00:03:14;101069.97;;;16.75;100.00
72444;BME280;60449;52.016;5.414;2023-10-13T00:04:40;101068.06;;;16.83;100.00
72444;BME280;60449;52.016;5.414;2023-10-13T00:05:33;101073.34;;;16.85;100.00
72444;BME280;60449;52.016;5.414;2023-10-13T00:06:22;101071.59;;;16.82;100.00
72444;BME280;60449;52.016;5.414;2023-10-13T00:07:26;101073.28;;;16.90;100.00
72444;BME280;60449;52.016;5.414;2023-10-13T00:08:33;101070.53;;;16.99;100.00
72444;BME280;60449;52.016;5.414;2023-10-13T00:13:32;101058.28;;;16.85;100.00
72444;BME280;60449;52.016;5.414;2023-10-13T00:20:11;101052.31;;;16.68;100.00
72444;BME280;60449;52.016;5.414;2023-10-13T00:21:20;101049.84;;;16.55;100.00
72444;BME280;60449;52.016;5.414;2023-10-13T00:22:20;101045.19;;;16.70;100.00
72444;BME280;60449;52.016;5.414;2023-10-13T00:23:11;101052.16;;;16.77;100.00
72444;BME280;60449;52.016;5.414;2023-10-13T00:24:13;101038.25;;;16.61;100.00
72444;BME280;60449;52.016;5.414;2023-10-13T00:25:21;101041.69;;;16.66;100.00
72444;BME280;60449;52.016;5.414;2023-10-13T00:26:27;101049.56;;;16.74;100.00
72444;BME280;60449;52.016;5.414;2023-10-13T00:27:26;101054.16;;;16.63;100.00
72444;BME280;60449;52.016;5.414;2023-10-13T00:28:41;101044.13;;;16.80;100.00
72444;BME280;60449;52.016;5.414;2023-10-13T00:29:37;101051.31;;;16.75;100.00
72444;BME280;60449;52.016;5.414;2023-10-13T00:30:28;101046.66;;;16.88;100.00
72444;BME280;60449;52.016;5.414;2023-10-13T00:31:44;101043.28;;;16.78;100.00
72444;BME280;60449;52.016;5.414;2023-10-13T00:34:27;101044.97;;;16.85;100.00
72444;BME280;60449;52.016;5.414;2023-10-13T00:35:22;101038.66;;;16.90;100.00
72444;BME280;60449;52.016;5.414;2023-10-13T00:36:24;101043.78;;;17.04;100.00
72444;BME280;60449;52.016;5.414;2023-10-13T00:37:23;101032.41;;;16.92;100.00
72444;BME280;60449;52.016;5.414;2023-10-13T00:38:35;101034.03;;;17.04;100.00
72444;BME280;60449;52.016;5.414;2023-10-13T00:39:30;101034.94;;;17.03;100.00
72444;BME280;60449;52.016;5.414;2023-10-13T00:40:25;101033.91;;;17.10;100.00
72444;BME280;60449;52.016;5.414;2023-10-13T00:41:29;101028.88;;;16.90;100.00
72444;BME280;60449;52.016;5.414;2023-10-13T00:42:45;101025.34;;;16.91;100.00
72444;BME280;60449;52.016;5.414;2023-10-13T00:43:45;101030.13;;;16.69;100.00
72444;BME280;60449;52.016;5.414;2023-10-13T00:44:52;101029.09;;;16.78;100.00
72444;BME280;60449;52.016;5.414;2023-10-13T00:45:44;101035.41;;;16.72;100.00
72444;BME280;60449;52.016;5.414;2023-10-13T00:46:38;101030.06;;;16.72;100.00
72444;BME280;60449;52.016;5.414;2023-10-13T00:47:28;101020.44;;;16.63;100.00
72444;BME280;60449;52.016;5.414;2023-10-13T00:48:38;101026.59;;;16.67;100.00
72444;BME280;60449;52.016;5.414;2023-10-13T00:49:42;101033.88;;;16.55;100.00
72444;BME280;60449;52.016;5.414;2023-10-13T00:50:45;101015.94;;;16.67;100.00
72444;BME280;60449;52.016;5.414;2023-10-13T00:51:37;101015.16;;;16.60;100.00
72444;BME280;60449;52.016;5.414;2023-10-13T00:52:31;101017.78;;;16.63;100.00
72444;BME280;60449;52.016;5.414;2023-10-13T00:53:41;101022.22;;;16.64;100.00
72444;BME280;60449;52.016;5.414;2023-10-13T00:54:36;101018.59;;;16.68;100.00
72444;BME280;60449;52.016;5.414;2023-10-13T00:55:36;101009.63;;;16.73;100.00
72444;BME280;60449;52.016;5.414;2023-10-13T00:56:33;101010.66;;;16.64;100.00
72444;BME280;60449;52.016;5.414;2023-10-13T00:57:30;101014.31;;;16.58;100.00
72444;BME280;60449;52.016;5.414;2023-10-13T00:58:24;101023.22;;;16.55;100.00
72444;BME280;60449;52.016;5.414;2023-10-13T00:59:18;101016.00;;;16.64;100.00
72444;BME280;60449;52.016;5.414;2023-10-13T01:00:15;101024.81;;;16.69;100.00
72444;BME280;60449;52.016;5.414;2023-10-13T01:01:12;101016.81;;;16.69;100.00
72444;BME280;60449;52.016;5.414;2023-10-13T01:02:28;101002.53;;;16.73;100.00
72444;BME280;60449;52.016;5.414;2023-10-13T01:03:54;101004.38;;;16.69;100.00
72444;BME280;60449;52.016;5.414;2023-10-13T01:04:44;101003.41;;;16.75;100.00
72444;BME280;60449;52.016;5.414;2023-10-13T01:05:37;101007.88;;;16.71;100.00
72444;BME280;60449;52.016;5.414;2023-10-13T01:06:36;101005.28;;;16.67;100.00
72444;BME280;60449;52.016;5.414;2023-10-13T01:07:27;100996.44;;;16.66;100.00
72444;BME280;60449;52.016;5.414;2023-10-13T01:08:33;101002.84;;;16.54;100.00
72444;BME280;60449;52.016;5.414;2023-10-13T01:09:29;101004.63;;;16.54;100.00
72444;BME280;60449;52.016;5.414;2023-10-13T01:10:36;100999.16;;;16.63;100.00
72444;BME280;60449;52.016;5.414;2023-10-13T01:11:44;100990.25;;;16.64;100.00
72444;BME280;60449;52.016;5.414;2023-10-13T01:12:37;100991.97;;;16.67;100.00
72444;BME280;60449;52.016;5.414;2023-10-13T01:13:27;100986.63;;;16.70;100.00
72444;BME280;60449;52.016;5.414;2023-10-13T01:14:26;100994.69;;;16.65;100.00
72444;BME280;60449;52.016;5.414;2023-10-13T01:15:18;100986.75;;;16.62;100.00
72444;BME280;60449;52.016;5.414;2023-10-13T01:16:11;100992.88;;;16.69;100.00
72444;BME280;60449;52.016;5.414;2023-10-13T01:17:01;100996.31;;;16.74;100.00
72444;BME280;60449;52.016;5.414;2023-10-13T01:17:52;100989.13;;;16.79;100.00
72444;BME280;60449;52.016;5.414;2023-10-13T01:18:45;100988.28;;;16.77;100.00
72444;BME280;60449;52.016;5.414;2023-10-13T01:19:37;100992.75;;;16.75;100.00
72444;BME280;60449;52.016;5.414;2023-10-13T01:20:32;100982.22;;;16.66;100.00
72444;BME280;60449;52.016;5.414;2023-10-13T01:21:27;100983.44;;;16.48;100.00
72444;BME280;60449;52.016;5.414;2023-10-13T01:22:28;100986.59;;;16.71;100.00
72444;BME280;60449;52.016;5.414;2023-10-13T01:23:29;100989.25;;;16.73;100.00
72444;BME280;60449;52.016;5.414;2023-10-13T01:24:31;100988.97;;;16.89;100.00
72444;BME280;60449;52.016;5.414;2023-10-13T01:25:28;100975.75;;;16.82;100.00
72444;BME280;60449;52.016;5.414;2023-10-13T01:26:22;100974.13;;;16.74;100.00
72444;BME280;60449;52.016;5.414;2023-10-13T01:27:15;100963.78;;;16.55;100.00
72444;BME280;60449;52.016;5.414;2023-10-13T01:28:07;100971.84;;;16.50;100.00
72444;BME280;60449;52.016;5.414;2023-10-13T01:28:57;100972.56;;;16.62;100.00
72444;BME280;60449;52.016;5.414;2023-10-13T01:29:49;100978.78;;;16.61;100.00
72444;BME280;60449;52.016;5.414;2023-10-13T01:32:37;100976.84;;;16.72;100.00
72444;BME280;60449;52.016;5.414;2023-10-13T01:33:59;100966.31;;;16.63;100.00
72444;BME280;60449;52.016;5.414;2023-10-13T01:35:02;100963.66;;;16.64;100.00
72444;BME280;60449;52.016;5.414;2023-10-13T01:36:07;100964.81;;;16.46;100.00
72444;BME280;60449;52.016;5.414;2023-10-13T01:37:17;100965.59;;;16.51;100.00
72444;BME280;60449;52.016;5.414;2023-10-13T01:38:19;100968.31;;;16.48;100.00
72444;BME280;60449;52.016;5.414;2023-10-13T01:39:15;100967.22;;;16.62;100.00
72444;BME280;60449;52.016;5.414;2023-10-13T01:40:06;100967.94;;;16.73;100.00
72444;BME280;60449;52.016;5.414;2023-10-13T01:41:14;100969.63;;;16.79;100.00
72444;BME280;60449;52.016;5.414;2023-10-13T01:42:14;100971.56;;;16.69;100.00
72444;BME280;60449;52.016;5.414;2023-10-13T01:43:09;100961.91;;;16.62;100.00
72444;BME280;60449;52.016;5.414;2023-10-13T01:44:01;100957.38;;;16.67;100.00
72444;BME280;60449;52.016;5.414;2023-10-13T01:44:51;100961.78;;;16.69;100.00
72444;BME280;60449;52.016;5.414;2023-10-13T01:45:53;100962.81;;;16.61;100.00
72444;BME280;60449;52.016;5.414;2023-10-13T01:46:45;100956.78;;;16.49;100.00
72444;BME280;60449;52.016;5.414;2023-10-13T01:47:37;100954.03;;;16.55;100.00
72444;BME280;60449;52.016;5.414;2023-10-13T01:48:29;100958.38;;;16.61;100.00
72444;BME280;60449;52.016;5.414;2023-10-13T01:49:21;100952.03;;;16.67;100.00
72444;BME280;60449;52.016;5.414;2023-10-13T01:50:13;100952.19;;;16.59;100.00
72444;BME280;60449;52.016;5.414;2023-10-13T01:51:04;100951.13;;;16.68;100.00
72444;BME280;60449;52.016;5.414;2023-10-13T01:51:57;100950.34;;;16.63;100.00
72444;BME280;60449;52.016;5.414;2023-10-13T01:52:52;100956.44;;;16.69;100.00
72444;BME280;60449;52.016;5.414;2023-10-13T01:54:08;100949.38;;;16.67;100.00
72444;BME280;60449;52.016;5.414;2023-10-13T01:55:00;100944.31;;;16.53;100.00
72444;BME280;60449;52.016;5.414;2023-10-13T01:58:12;100947.63;;;16.67;100.00
72444;BME280;60449;52.016;5.414;2023-10-13T02:06:36;100935.59;;;16.95;100.00
72444;BME280;60449;52.016;5.414;2023-10-13T02:07:32;100928.69;;;16.84;100.00
72444;BME280;60449;52.016;5.414;2023-10-13T02:08:30;100931.38;;;16.84;100.00
72444;BME280;60449;52.016;5.414;2023-10-13T02:09:21;100934.78;;;16.91;100.00
72444;BME280;60449;52.016;5.414;2023-10-13T02:10:23;100933.91;;;16.91;100.00
72444;BME280;60449;52.016;5.414;2023-10-13T02:11:25;100935.94;;;16.76;100.00
72444;BME280;60449;52.016;5.414;2023-10-13T02:12:16;100923.38;;;16.84;100.00
72444;BME280;60449;52.016;5.414;2023-10-13T02:13:06;100923.47;;;16.78;100.00
72444;BME280;60449;52.016;5.414;2023-10-13T02:14:04;100919.13;;;16.73;100.00
72444;BME280;60449;52.016;5.414;2023-10-13T02:15:04;100921.00;;;16.66;100.00
72444;BME280;60449;52.016;5.414;2023-10-13T02:15:56;100933.22;;;16.79;100.00
72444;BME280;60449;52.016;5.414;2023-10-13T02:16:58;100932.63;;;16.62;100.00
72444;BME280;60449;52.016;5.414;2023-10-13T02:18:01;100927.28;;;16.63;100.00
72444;BME280;60449;52.016;5.414;2023-10-13T02:19:15;100916.97;;;16.43;100.00
72444;BME280;60449;52.016;5.414;2023-10-13T02:20:09;100924.06;;;16.42;100.00
72444;BME280;60449;52.016;5.414;2023-10-13T02:21:03;100916.84;;;16.49;100.00
72444;BME280;60449;52.016;5.414;2023-10-13T02:21:54;100911.47;;;16.52;100.00
72444;BME280;60449;52.016;5.414;2023-10-13T02:22:50;100920.22;;;16.61;100.00
72444;BME280;60449;52.016;5.414;2023-10-13T02:23:51;100918.13;;;16.78;100.00
72444;BME280;60449;52.016;5.414;2023-10-13T02:24:55;100920.00;;;16.73;100.00
72444;BME280;60449;52.016;5.414;2023-10-13T02:25:51;100911.28;;;16.65;100.00
72444;BME280;60449;52.016;5.414;2023-10-13T02:26:49;100913.19;;;16.56;100.00
72444;BME280;60449;52.016;5.414;2023-10-13T02:27:39;100902.44;;;16.63;100.00
72444;BME280;60449;52.016;5.414;2023-10-13T02:28:32;100909.72;;;16.53;100.00
72444;BME280;60449;52.016;5.414;2023-10-13T02:29:33;100900.69;;;16.62;100.00
72444;BME280;60449;52.016;5.414;2023-10-13T02:30:28;100898.78;;;16.68;100.00
72444;BME280;60449;52.016;5.414;2023-10-13T02:31:23;100891.88;;;16.58;100.00
72444;BME280;60449;52.016;5.414;2023-10-13T02:32:16;100897.81;;;16.73;100.00
72444;BME280;60449;52.016;5.414;2023-10-13T02:33:08;100897.03;;;16.69;100.00
72444;BME280;60449;52.016;5.414;2023-10-13T02:34:01;100896.84;;;16.78;100.00
72444;BME280;60449;52.016;5.414;2023-10-13T02:35:02;100908.47;;;16.74;100.00
72444;BME280;60449;52.016;5.414;2023-10-13T02:36:03;100893.09;;;16.89;100.00
72444;BME280;60449;52.016;5.414;2023-10-13T02:36:57;100891.16;;;17.00;100.00
72444;BME280;60449;52.016;5.414;2023-10-13T02:37:50;100890.19;;;17.03;100.00
72444;BME280;60449;52.016;5.414;2023-10-13T02:38:48;100887.38;;;17.10;100.00
72444;BME280;60449;52.016;5.414;2023-10-13T02:39:40;100893.25;;;16.81;100.00
72444;BME280;60449;52.016;5.414;2023-10-13T02:40:36;100885.19;;;16.84;100.00
72444;BME280;60449;52.016;5.414;2023-10-13T02:41:26;100893.22;;;16.82;100.00
72444;BME280;60449;52.016;5.414;2023-10-13T02:42:18;100883.31;;;16.89;100.00
72444;BME280;60449;52.016;5.414;2023-10-13T02:43:18;100879.13;;;16.77;100.00
72444;BME280;60449;52.016;5.414;2023-10-13T02:44:11;100880.03;;;16.75;100.00
72444;BME280;60449;52.016;5.414;2023-10-13T02:45:13;100870.63;;;16.56;100.00
72444;BME280;60449;52.016;5.414;2023-10-13T02:46:04;100873.88;;;16.73;100.00
72444;BME280;60449;52.016;5.414;2023-10-13T02:46:54;100871.34;;;16.65;100.00
72444;BME280;60449;52.016;5.414;2023-10-13T02:47:45;100871.88;;;16.84;100.00
72444;BME280;60449;52.016;5.414;2023-10-13T02:48:45;100864.81;;;16.81;100.00
72444;BME280;60449;52.016;5.414;2023-10-13T02:49:47;100866.78;;;16.71;100.00
72444;BME280;60449;52.016;5.414;2023-10-13T02:50:41;100871.28;;;16.68;100.00
72444;BME280;60449;52.016;5.414;2023-10-13T02:51:35;100863.25;;;16.71;100.00
72444;BME280;60449;52.016;5.414;2023-10-13T02:52:25;100862.16;;;16.83;100.00
72444;BME280;60449;52.016;5.414;2023-10-13T02:53:22;100856.41;;;16.57;100.00
72444;BME280;60449;52.016;5.414;2023-10-13T02:54:13;100847.31;;;16.68;100.00
72444;BME280;60449;52.016;5.414;2023-10-13T02:55:28;100847.16;;;16.77;100.00
72444;BME280;60449;52.016;5.414;2023-10-13T02:56:31;100849.97;;;16.69;100.00
72444;BME280;60449;52.016;5.414;2023-10-13T02:57:21;100852.63;;;16.69;100.00
72444;BME280;60449;52.016;5.414;2023-10-13T02:58:25;100845.56;;;16.67;100.00
72444;BME280;60449;52.016;5.414;2023-10-13T02:59:41;100837.59;;;16.67;100.00
72444;BME280;60449;52.016;5.414;2023-10-13T03:00:56;100835.44;;;16.88;100.00
72444;BME280;60449;52.016;5.414;2023-10-13T03:02:02;100846.34;;;16.74;100.00
72444;BME280;60449;52.016;5.414;2023-10-13T03:03:34;100835.34;;;16.92;100.00
72444;BME280;60449;52.016;5.414;2023-10-13T03:04:24;100841.47;;;16.96;100.00
72444;BME280;60449;52.016;5.414;2023-10-13T03:05:35;100832.78;;;16.88;100.00
72444;BME280;60449;52.016;5.414;2023-10-13T03:06:29;100834.69;;;16.79;100.00
72444;BME280;60449;52.016;5.414;2023-10-13T03:07:43;100832.59;;;16.50;100.00
72444;BME280;60449;52.016;5.414;2023-10-13T03:08:34;100826.56;;;16.40;100.00
72444;BME280;60449;52.016;5.414;2023-10-13T03:09:35;100823.75;;;16.48;100.00
72444;BME280;60449;52.016;5.414;2023-10-13T03:10:45;100816.56;;;16.51;100.00
72444;BME280;60449;52.016;5.414;2023-10-13T03:11:40;100811.28;;;16.50;100.00
72444;BME280;60449;52.016;5.414;2023-10-13T03:12:39;100809.53;;;16.49;100.00
72444;BME280;60449;52.016;5.414;2023-10-13T03:13:29;100811.44;;;16.42;100.00
72444;BME280;60449;52.016;5.414;2023-10-13T03:14:23;100794.63;;;16.40;100.00
72444;BME280;60449;52.016;5.414;2023-10-13T03:15:13;100796.25;;;16.47;100.00
72444;BME280;60449;52.016;5.414;2023-10-13T03:16:18;100800.81;;;16.40;100.00
72444;BME280;60449;52.016;5.414;2023-10-13T03:17:09;100793.56;;;16.49;100.00
72444;BME280;60449;52.016;5.414;2023-10-13T03:18:04;100801.63;;;16.46;100.00
72444;BME280;60449;52.016;5.414;2023-10-13T03:18:53;100794.28;;;16.57;100.00
72444;BME280;60449;52.016;5.414;2023-10-13T03:19:46;100795.03;;;16.65;100.00
72444;BME280;60449;52.016;5.414;2023-10-13T03:20:39;100792.81;;;16.42;100.00
72444;BME280;60449;52.016;5.414;2023-10-13T03:21:31;100791.75;;;16.51;100.00
72444;BME280;60449;52.016;5.414;2023-10-13T03:22:24;100789.31;;;16.40;100.00
72444;BME280;60449;52.016;5.414;2023-10-13T03:23:25;100790.28;;;16.34;100.00
72444;BME280;60449;52.016;5.414;2023-10-13T03:24:16;100788.41;;;16.39;100.00
72444;BME280;60449;52.016;5.414;2023-10-13T03:25:18;100778.66;;;16.40;100.00
72444;BME280;60449;52.016;5.414;2023-10-13T03:26:13;100786.81;;;16.31;100.00
72444;BME280;60449;52.016;5.414;2023-10-13T03:27:08;100781.47;;;16.31;100.00
72444;BME280;60449;52.016;5.414;2023-10-13T03:27:59;100778.88;;;16.27;100.00
72444;BME280;60449;52.016;5.414;2023-10-13T03:29:13;100786.03;;;16.22;100.00
72444;BME280;60449;52.016;5.414;2023-10-13T03:30:20;100785.50;;;16.53;100.00
72444;BME280;60449;52.016;5.414;2023-10-13T03:31:10;100774.91;;;16.50;100.00
72444;BME280;60449;52.016;5.414;2023-10-13T03:32:07;100781.94;;;16.54;100.00
72444;BME280;60449;52.016;5.414;2023-10-13T03:33:04;100771.19;;;16.59;100.00
72444;BME280;60449;52.016;5.414;2023-10-13T03:34:05;100788.34;;;16.44;100.00
72444;BME280;60449;52.016;5.414;2023-10-13T03:35:03;100777.47;;;16.55;100.00
72444;BME280;60449;52.016;5.414;2023-10-13T03:36:10;100782.84;;;16.53;100.00
72444;BME280;60449;52.016;5.414;2023-10-13T03:37:47;100789.97;;;16.51;100.00
72444;BME280;60449;52.016;5.414;2023-10-13T03:38:44;100800.72;;;16.47;100.00
72444;BME280;60449;52.016;5.414;2023-10-13T03:39:50;100795.28;;;16.51;100.00
72444;BME280;60449;52.016;5.414;2023-10-13T03:40:43;100793.44;;;16.56;100.00
72444;BME280;60449;52.016;5.414;2023-10-13T03:41:56;100777.56;;;16.50;100.00
72444;BME280;60449;52.016;5.414;2023-10-13T03:53:44;100740.09;;;16.14;100.00
72444;BME280;60449;52.016;5.414;2023-10-13T03:54:45;100737.94;;;16.35;100.00
72444;BME280;60449;52.016;5.414;2023-10-13T03:55:36;100722.88;;;16.35;100.00
72444;BME280;60449;52.016;5.414;2023-10-13T03:56:28;100728.25;;;16.32;100.00
72444;BME280;60449;52.016;5.414;2023-10-13T03:57:31;100723.00;;;16.27;100.00
72444;BME280;60449;52.016;5.414;2023-10-13T03:58:23;100715.09;;;16.24;100.00
72444;BME280;60449;52.016;5.414;2023-10-13T03:59:15;100714.19;;;16.25;100.00
72444;BME280;60449;52.016;5.414;2023-10-13T04:00:26;100712.53;;;16.20;100.00
72444;BME280;60449;52.016;5.414;2023-10-13T04:01:26;100715.13;;;16.21;100.00
72444;BME280;60449;52.016;5.414;2023-10-13T04:02:27;100716.81;;;16.27;100.00
72444;BME280;60449;52.016;5.414;2023-10-13T04:03:24;100712.16;;;16.40;100.00
72444;BME280;60449;52.016;5.414;2023-10-13T04:04:28;100702.66;;;16.26;100.00
72444;BME280;60449;52.016;5.414;2023-10-13T04:05:38;100697.28;;;16.28;100.00
72444;BME280;60449;52.016;5.414;2023-10-13T04:06:30;100701.59;;;16.34;100.00
72444;BME280;60449;52.016;5.414;2023-10-13T04:08:02;100699.13;;;16.24;100.00
72444;BME280;60449;52.016;5.414;2023-10-13T04:09:25;100683.28;;;16.18;100.00
72444;BME280;60449;52.016;5.414;2023-10-13T04:10:48;100676.03;;;16.26;100.00
72444;BME280;60449;52.016;5.414;2023-10-13T04:11:55;100680.59;;;16.20;100.00
72444;BME280;60449;52.016;5.414;2023-10-13T04:13:01;100683.19;;;16.24;100.00
72444;BME280;60449;52.016;5.414;2023-10-13T04:14:15;100676.66;;;16.39;100.00
72444;BME280;60449;52.016;5.414;2023-10-13T04:15:34;100678.16;;;16.53;100.00
72444;BME280;60449;52.016;5.414;2023-10-13T04:16:34;100668.72;;;16.38;100.00
72444;BME280;60449;52.016;5.414;2023-10-13T04:17:31;100670.47;;;16.39;100.00
72444;BME280;60449;52.016;5.414;2023-10-13T04:18:33;100671.50;;;16.32;100.00
72444;BME280;60449;52.016;5.414;2023-10-13T04:19:47;100660.84;;;16.32;100.00
72444;BME280;60449;52.016;5.414;2023-10-13T04:20:53;100659.03;;;16.34;100.00
72444;BME280;60449;52.016;5.414;2023-10-13T04:22:08;100653.72;;;16.34;100.00
72444;BME280;60449;52.016;5.414;2023-10-13T04:23:03;100656.75;;;16.15;100.00
72444;BME280;60449;52.016;5.414;2023-10-13T04:24:11;100664.72;;;16.15;100.00
72444;BME280;60449;52.016;5.414;2023-10-13T04:25:36;100647.00;;;16.16;100.00
72444;BME280;60449;52.016;5.414;2023-10-13T04:26:53;100650.31;;;16.27;100.00
72444;BME280;60449;52.016;5.414;2023-10-13T04:28:24;100644.22;;;16.20;100.00
72444;BME280;60449;52.016;5.414;2023-10-13T04:29:31;100638.13;;;16.17;100.00
72444;BME280;60449;52.016;5.414;2023-10-13T04:30:36;100638.13;;;16.15;100.00
72444;BME280;60449;52.016;5.414;2023-10-13T04:31:41;100628.41;;;16.14;100.00
72444;BME280;60449;52.016;5.414;2023-10-13T04:32:49;100634.50;;;16.19;100.00
72444;BME280;60449;52.016;5.414;2023-10-13T04:34:04;100612.16;;;16.28;100.00
72444;BME280;60449;52.016;5.414;2023-10-13T04:35:13;100630.88;;;16.23;100.00
72444;BME280;60449;52.016;5.414;2023-10-13T04:36:24;100624.34;;;16.40;100.00
72444;BME280;60449;52.016;5.414;2023-10-13T04:37:35;100622.34;;;16.50;100.00
72444;BME280;60449;52.016;5.414;2023-10-13T04:38:40;100619.88;;;16.40;100.00
72444;BME280;60449;52.016;5.414;2023-10-13T04:39:45;100606.47;;;16.47;100.00
72444;BME280;60449;52.016;5.414;2023-10-13T04:40:49;100616.47;;;16.34;100.00
72444;BME280;60449;52.016;5.414;2023-10-13T04:42:00;100615.03;;;16.60;100.00
72444;BME280;60449;52.016;5.414;2023-10-13T04:43:04;100620.72;;;16.42;100.00
72444;BME280;60449;52.016;5.414;2023-10-13T04:44:30;100611.53;;;16.57;100.00
72444;BME280;60449;52.016;5.414;2023-10-13T04:45:59;100609.34;;;16.77;100.00
72444;BME280;60449;52.016;5.414;2023-10-13T04:47:16;100600.09;;;16.54;100.00
72444;BME280;60449;52.016;5.414;2023-10-13T04:48:10;100588.75;;;16.46;100.00
72444;BME280;60449;52.016;5.414;2023-10-13T04:49:16;100583.44;;;16.44;100.00
72444;BME280;60449;52.016;5.414;2023-10-13T04:50:28;100594.28;;;16.35;100.00
72444;BME280;60449;52.016;5.414;2023-10-13T04:51:33;100599.16;;;16.56;100.00
72444;BME280;60449;52.016;5.414;2023-10-13T04:52:38;100603.47;;;16.61;100.00
72444;BME280;60449;52.016;5.414;2023-10-13T04:53:49;100608.97;;;16.53;100.00
72444;BME280;60449;52.016;5.414;2023-10-13T04:55:02;100608.78;;;16.62;100.00
72444;BME280;60449;52.016;5.414;2023-10-13T04:56:08;100598.25;;;16.56;100.00
72444;BME280;60449;52.016;5.414;2023-10-13T04:57:29;100603.69;;;16.51;100.00
72444;BME280;60449;52.016;5.414;2023-10-13T04:58:23;100603.06;;;16.40;100.00
72444;BME280;60449;52.016;5.414;2023-10-13T04:59:35;100605.56;;;16.48;100.00
72444;BME280;60449;52.016;5.414;2023-10-13T05:00:26;100606.41;;;16.48;100.00
72444;BME280;60449;52.016;5.414;2023-10-13T05:01:35;100597.59;;;16.46;100.00
72444;BME280;60449;52.016;5.414;2023-10-13T05:02:45;100605.72;;;16.38;100.00
72444;BME280;60449;52.016;5.414;2023-10-13T05:04:06;100589.63;;;16.45;100.00
72444;BME280;60449;52.016;5.414;2023-10-13T05:05:13;100591.34;;;16.47;100.00
72444;BME280;60449;52.016;5.414;2023-10-13T05:06:23;100596.59;;;16.52;100.00
72444;BME280;60449;52.016;5.414;2023-10-13T05:07:32;100606.97;;;16.63;100.00
72444;BME280;60449;52.016;5.414;2023-10-13T05:08:56;100607.72;;;16.69;100.00
72444;BME280;60449;52.016;5.414;2023-10-13T05:10:17;100607.81;;;16.66;100.00
72444;BME280;60449;52.016;5.414;2023-10-13T05:11:30;100588.19;;;16.70;100.00
72444;BME280;60449;52.016;5.414;2023-10-13T05:12:47;100618.41;;;16.68;100.00
72444;BME280;60449;52.016;5.414;2023-10-13T05:14:16;100566.94;;;16.69;100.00
72444;BME280;60449;52.016;5.414;2023-10-13T05:15:24;100584.69;;;16.68;100.00
72444;BME280;60449;52.016;5.414;2023-10-13T05:16:44;100579.25;;;16.73;100.00
72444;BME280;60449;52.016;5.414;2023-10-13T05:17:55;100581.75;;;16.81;100.00
72444;BME280;60449;52.016;5.414;2023-10-13T05:19:04;100594.94;;;16.85;100.00
72444;BME280;60449;52.016;5.414;2023-10-13T05:20:22;100583.50;;;16.82;100.00
72444;BME280;60449;52.016;5.414;2023-10-13T05:21:31;100583.34;;;16.88;100.00
72444;BME280;60449;52.016;5.414;2023-10-13T05:22:39;100600.94;;;16.95;100.00
72444;BME280;60449;52.016;5.414;2023-10-13T05:23:50;100592.22;;;16.89;100.00
72444;BME280;60449;52.016;5.414;2023-10-13T05:25:02;100586.81;;;16.92;100.00
72444;BME280;60449;52.016;5.414;2023-10-13T05:30:53;100582.31;;;16.94;100.00
72444;BME280;60449;52.016;5.414;2023-10-13T05:32:25;100592.88;;;16.97;100.00
72444;BME280;60449;52.016;5.414;2023-10-13T05:36:10;100574.09;;;17.05;100.00
72444;BME280;60449;52.016;5.414;2023-10-13T05:37:19;100582.13;;;17.03;100.00
72444;BME280;60449;52.016;5.414;2023-10-13T05:38:27;100580.28;;;17.07;100.00
72444;BME280;60449;52.016;5.414;2023-10-13T05:39:55;100564.25;;;17.08;100.00
72444;BME280;60449;52.016;5.414;2023-10-13T05:41:05;100574.25;;;16.97;100.00
72444;BME280;60449;52.016;5.414;2023-10-13T05:42:17;100567.63;;;17.15;100.00
72444;BME280;60449;52.016;5.414;2023-10-13T05:43:25;100566.06;;;17.06;100.00
72444;BME280;60449;52.016;5.414;2023-10-13T05:44:34;100559.91;;;17.04;100.00
72444;BME280;60449;52.016;5.414;2023-10-13T05:45:53;100575.81;;;17.07;100.00
72444;BME280;60449;52.016;5.414;2023-10-13T05:47:13;100569.56;;;17.10;100.00
72444;BME280;60449;52.016;5.414;2023-10-13T05:49:57;100556.13;;;17.15;100.00
72444;BME280;60449;52.016;5.414;2023-10-13T05:51:08;100551.84;;;17.07;100.00
72444;BME280;60449;52.016;5.414;2023-10-13T05:52:17;100551.94;;;17.04;100.00
72444;BME280;60449;52.016;5.414;2023-10-13T05:53:54;100563.34;;;17.09;100.00
72444;BME280;60449;52.016;5.414;2023-10-13T05:55:09;100552.88;;;17.02;100.00
72444;BME280;60449;52.016;5.414;2023-10-13T05:56:32;100561.78;;;17.01;100.00
72444;BME280;60449;52.016;5.414;2023-10-13T05:58:07;100542.13;;;17.05;100.00
72444;BME280;60449;52.016;5.414;2023-10-13T05:59:32;100546.94;;;16.89;100.00
72444;BME280;60449;52.016;5.414;2023-10-13T06:00:49;100539.09;;;16.82;100.00
72444;BME280;60449;52.016;5.414;2023-10-13T06:02:20;100547.03;;;16.85;100.00
72444;BME280;60449;52.016;5.414;2023-10-13T06:03:29;100550.38;;;16.94;100.00
72444;BME280;60449;52.016;5.414;2023-10-13T06:04:44;100554.78;;;16.95;100.00
72444;BME280;60449;52.016;5.414;2023-10-13T06:06:02;100562.03;;;16.88;100.00
72444;BME280;60449;52.016;5.414;2023-10-13T06:07:26;100558.25;;;17.00;100.00